Time;durP1;ratioP1;P1;durP2;ratioP2;P2;SDS_P1;SDS_P2;PMS_P1;PMS_P2;Temp;Humidity;BMP_temperature;BMP_pressure;BME280_temperature;BME280_humidity;BME280_pressure;Samples;Min_cycle;Max_cycle;Signal;HPM_P1;HPM_P2
2023/10/23 00:00:43;;;;;;;5.40;1.10;;;;;;;;;;5055603;28;20025;-69
2023/10/23 00:03:09;;;;;;;7.60;1.00;;;;;;;;;;5055502;28;20090;-69
2023/10/23 00:05:35;;;;;;;6.10;1.23;;;;;;;;;;5055228;28;20044;-69
2023/10/23 00:08:02;;;;;;;3.85;0.93;;;;;;;;;;5055466;28;20025;-69
2023/10/23 00:10:28;;;;;;;7.57;1.20;;;;;;;;;;5055276;28;20039;-69
2023/10/23 00:12:54;;;;;;;7.40;1.00;;;;;;;;;;5055460;28;20017;-69
2023/10/23 00:15:20;;;;;;;6.80;1.35;;;;;;;;;;5055542;28;20033;-69
2023/10/23 00:17:47;;;;;;;5.55;1.20;;;;;;;;;;5055280;28;20485;-69
2023/10/23 00:20:13;;;;;;;11.38;1.42;;;;;;;;;;5054941;28;20029;-69
2023/10/23 00:22:39;;;;;;;7.05;1.40;;;;;;;;;;5055465;28;20024;-69
2023/10/23 00:25:06;;;;;;;6.10;1.60;;;;;;;;;;5055121;28;20021;-69
2023/10/23 00:27:32;;;;;;;4.50;1.02;;;;;;;;;;5055172;28;20036;-69
2023/10/23 00:29:59;;;;;;;5.80;0.90;;;;;;;;;;5055023;28;20021;-69
2023/10/23 00:32:26;;;;;;;4.05;1.10;;;;;;;;;;5054917;28;20397;-69
2023/10/23 00:34:52;;;;;;;4.72;1.00;;;;;;;;;;5054548;28;20500;-69
2023/10/23 00:37:18;;;;;;;3.78;1.10;;;;;;;;;;5054827;28;20029;-69
2023/10/23 00:39:44;;;;;;;5.05;0.90;;;;;;;;;;5054858;28;20086;-69
2023/10/23 00:42:11;;;;;;;3.45;1.20;;;;;;;;;;5054828;28;20021;-69
2023/10/23 00:44:37;;;;;;;5.20;1.20;;;;;;;;;;5054563;28;20027;-69
2023/10/23 00:47:03;;;;;;;2.75;1.15;;;;;;;;;;5054911;28;20017;-69
2023/10/23 00:49:30;;;;;;;7.30;1.35;;;;;;;;;;5054374;28;20021;-69
2023/10/23 00:51:56;;;;;;;4.90;1.20;;;;;;;;;;5053796;28;20025;-69
2023/10/23 00:54:23;;;;;;;6.05;1.27;;;;;;;;;;5054592;28;20033;-69
2023/10/23 00:56:50;;;;;;;9.90;1.35;;;;;;;;;;5054332;28;20389;-69
2023/10/23 00:59:16;;;;;;;6.43;1.50;;;;;;;;;;5054339;28;20045;-69
2023/10/23 01:01:45;;;;;;;8.20;1.50;;;;;;;;;;5054459;28;20482;-69
2023/10/23 01:04:11;;;;;;;10.30;2.10;;;;;;;;;;5054357;28;20025;-69
2023/10/23 01:06:37;;;;;;;8.52;2.10;;;;;;;;;;5054319;28;20029;-69
2023/10/23 01:09:04;;;;;;;12.20;1.85;;;;;;;;;;5053195;28;20021;-69
2023/10/23 01:11:30;;;;;;;14.48;2.45;;;;;;;;;;5054297;28;20025;-69
2023/10/23 01:13:57;;;;;;;11.75;1.80;;;;;;;;;;5054251;28;20374;-69
2023/10/23 01:16:23;;;;;;;16.33;2.50;;;;;;;;;;5054319;28;20028;-69
2023/10/23 01:18:50;;;;;;;17.52;2.53;;;;;;;;;;5052888;28;20035;-70
2023/10/23 01:21:16;;;;;;;14.50;2.95;;;;;;;;;;5054120;28;20474;-69
2023/10/23 01:23:43;;;;;;;11.10;2.90;;;;;;;;;;5054211;28;20027;-69
2023/10/23 01:26:09;;;;;;;11.65;3.30;;;;;;;;;;5053890;28;20041;-69
2023/10/23 01:28:36;;;;;;;13.75;2.88;;;;;;;;;;5053990;28;20074;-69
2023/10/23 01:31:02;;;;;;;11.48;3.05;;;;;;;;;;5053893;28;20043;-69
2023/10/23 01:33:29;;;;;;;15.10;4.07;;;;;;;;;;5052325;28;20029;-69
2023/10/23 01:35:55;;;;;;;18.00;3.63;;;;;;;;;;5053671;28;20025;-69
2023/10/23 01:38:21;;;;;;;16.95;4.75;;;;;;;;;;5053915;28;20027;-69
2023/10/23 01:40:48;;;;;;;15.65;4.20;;;;;;;;;;5053665;28;20025;-69
2023/10/23 01:43:14;;;;;;;20.45;3.58;;;;;;;;;;5053770;28;20059;-69
2023/10/23 01:45:40;;;;;;;12.50;3.28;;;;;;;;;;5053600;28;20415;-69
2023/10/23 01:48:07;;;;;;;12.15;3.55;;;;;;;;;;5053136;28;20021;-69
2023/10/23 01:50:33;;;;;;;12.80;4.10;;;;;;;;;;5053782;28;20036;-69
2023/10/23 01:52:59;;;;;;;10.45;3.90;;;;;;;;;;5053581;28;20035;-69
2023/10/23 01:55:26;;;;;;;13.95;3.03;;;;;;;;;;5053805;28;20033;-69
2023/10/23 01:57:52;;;;;;;7.97;3.13;;;;;;;;;;5053496;28;20032;-69
2023/10/23 02:00:18;;;;;;;19.85;4.07;;;;;;;;;;5053169;28;20039;-69
2023/10/23 02:02:45;;;;;;;17.00;3.10;;;;;;;;;;5053192;28;20025;-69
2023/10/23 02:05:11;;;;;;;12.25;4.22;;;;;;;;;;5053119;28;20024;-69
2023/10/23 02:07:37;;;;;;;9.88;2.47;;;;;;;;;;5053274;28;20017;-69
2023/10/23 02:10:04;;;;;;;19.70;4.20;;;;;;;;;;5052943;28;20029;-69
2023/10/23 02:12:32;;;;;;;11.25;2.80;;;;;;;;;;5053034;28;20424;-69
2023/10/23 02:14:58;;;;;;;8.18;2.85;;;;;;;;;;5052790;28;20029;-69
2023/10/23 02:17:25;;;;;;;14.07;3.10;;;;;;;;;;5053112;28;20527;-69
2023/10/23 02:19:51;;;;;;;9.63;2.47;;;;;;;;;;5053040;28;20018;-69
2023/10/23 02:22:18;;;;;;;7.68;2.33;;;;;;;;;;5053004;28;20397;-69
2023/10/23 02:24:45;;;;;;;7.53;1.98;;;;;;;;;;5052749;28;20047;-69
2023/10/23 02:27:12;;;;;;;10.93;1.95;;;;;;;;;;5052848;28;20050;-69
2023/10/23 02:29:40;;;;;;;8.00;1.65;;;;;;;;;;5052716;28;20134;-69
2023/10/23 02:32:07;;;;;;;10.02;1.65;;;;;;;;;;5052860;28;20032;-69
2023/10/23 02:34:36;;;;;;;7.03;1.58;;;;;;;;;;5053194;28;20017;-69
2023/10/23 02:37:02;;;;;;;8.45;1.55;;;;;;;;;;5053009;28;20025;-69
2023/10/23 02:39:29;;;;;;;8.45;1.60;;;;;;;;;;5052769;28;20466;-69
2023/10/23 02:41:55;;;;;;;4.18;1.30;;;;;;;;;;5052779;28;20037;-69
2023/10/23 02:44:22;;;;;;;5.93;1.42;;;;;;;;;;5051986;28;20470;-69
2023/10/23 02:46:48;;;;;;;6.25;1.52;;;;;;;;;;5052549;28;20044;-69
2023/10/23 02:49:14;;;;;;;4.05;1.23;;;;;;;;;;5052546;28;20021;-69
2023/10/23 02:51:41;;;;;;;7.03;1.52;;;;;;;;;;5052790;28;20021;-69
2023/10/23 02:54:07;;;;;;;5.32;1.27;;;;;;;;;;5052557;28;20442;-69
2023/10/23 02:56:33;;;;;;;5.18;1.10;;;;;;;;;;5052463;28;20024;-69
2023/10/23 02:59:00;;;;;;;6.68;1.67;;;;;;;;;;5052057;28;20408;-69
2023/10/23 03:01:26;;;;;;;2.60;1.10;;;;;;;;;;5052468;28;20392;-69
2023/10/23 03:03:53;;;;;;;5.65;1.30;;;;;;;;;;5052685;28;20021;-69
2023/10/23 03:06:20;;;;;;;5.47;1.13;;;;;;;;;;5052369;28;20469;-69
2023/10/23 03:08:46;;;;;;;4.35;1.48;;;;;;;;;;5052434;28;20363;-69
2023/10/23 03:11:12;;;;;;;6.78;1.27;;;;;;;;;;5052374;28;20040;-69
2023/10/23 03:13:39;;;;;;;7.18;1.80;;;;;;;;;;5051934;28;20040;-70
2023/10/23 03:16:05;;;;;;;5.75;1.30;;;;;;;;;;5051171;28;20516;-69
2023/10/23 03:18:32;;;;;;;6.20;1.40;;;;;;;;;;5052375;28;20473;-69
2023/10/23 03:21:01;;;;;;;3.17;1.17;;;;;;;;;;5053191;28;20029;-69
2023/10/23 03:23:29;;;;;;;5.18;1.30;;;;;;;;;;5056440;28;20019;-69
2023/10/23 03:25:56;;;;;;;6.60;1.40;;;;;;;;;;5056130;28;20033;-69
2023/10/23 03:28:22;;;;;;;2.45;1.05;;;;;;;;;;5055803;28;20087;-69
2023/10/23 03:30:48;;;;;;;4.20;0.93;;;;;;;;;;5056141;28;20048;-69
2023/10/23 03:33:15;;;;;;;3.88;1.25;;;;;;;;;;5056051;28;20044;-69
2023/10/23 03:35:42;;;;;;;4.35;1.40;;;;;;;;;;5055981;28;20028;-69
2023/10/23 03:38:08;;;;;;;7.00;1.10;;;;;;;;;;5056341;28;20039;-69
2023/10/23 03:40:35;;;;;;;4.55;1.27;;;;;;;;;;5056135;28;20058;-69
2023/10/23 03:43:01;;;;;;;2.65;0.95;;;;;;;;;;5055592;28;20029;-69
2023/10/23 03:45:27;;;;;;;3.75;1.33;;;;;;;;;;5055757;28;20051;-69
2023/10/23 03:47:53;;;;;;;4.50;1.17;;;;;;;;;;5056134;28;20029;-69
2023/10/23 03:50:20;;;;;;;4.85;0.80;;;;;;;;;;5055796;28;20021;-68
2023/10/23 03:52:46;;;;;;;3.35;1.30;;;;;;;;;;5055735;28;20424;-69
2023/10/23 03:55:12;;;;;;;3.47;1.10;;;;;;;;;;5055713;28;20017;-69
2023/10/23 03:57:39;;;;;;;4.03;0.98;;;;;;;;;;5055430;28;20032;-69
2023/10/23 04:00:05;;;;;;;2.95;0.90;;;;;;;;;;5055642;28;20032;-69
2023/10/23 04:02:32;;;;;;;2.00;0.65;;;;;;;;;;5055651;28;20359;-69
2023/10/23 04:04:58;;;;;;;2.45;0.82;;;;;;;;;;5055398;28;20020;-69
2023/10/23 04:07:25;;;;;;;3.65;0.70;;;;;;;;;;5055551;28;20033;-69
2023/10/23 04:09:51;;;;;;;1.17;0.50;;;;;;;;;;5055441;28;20025;-69
2023/10/23 04:12:17;;;;;;;1.00;0.50;;;;;;;;;;5055305;28;20031;-69
2023/10/23 04:14:46;;;;;;;1.35;0.40;;;;;;;;;;5055441;28;20021;-69
2023/10/23 04:17:13;;;;;;;0.57;0.40;;;;;;;;;;5054098;28;20029;-69
2023/10/23 04:19:39;;;;;;;1.15;0.30;;;;;;;;;;5055824;28;20032;-69
2023/10/23 04:22:06;;;;;;;2.10;0.70;;;;;;;;;;5055242;28;20025;-69
2023/10/23 04:24:33;;;;;;;1.92;0.50;;;;;;;;;;5055069;28;20401;-69
2023/10/23 04:26:59;;;;;;;6.57;0.60;;;;;;;;;;5054750;28;20045;-69
2023/10/23 04:29:25;;;;;;;2.10;0.63;;;;;;;;;;5055010;28;20013;-69
2023/10/23 04:31:51;;;;;;;4.97;1.08;;;;;;;;;;5054533;28;20024;-69
2023/10/23 04:34:18;;;;;;;1.95;0.70;;;;;;;;;;5054929;28;20378;-69
2023/10/23 04:36:44;;;;;;;1.75;0.63;;;;;;;;;;5054951;28;20029;-69
2023/10/23 04:39:10;;;;;;;0.63;0.40;;;;;;;;;;5054928;28;20017;-69
2023/10/23 04:41:37;;;;;;;1.08;0.50;;;;;;;;;;5054579;28;20028;-69
2023/10/23 04:44:03;;;;;;;0.98;0.45;;;;;;;;;;5054739;28;20381;-69
2023/10/23 04:46:29;;;;;;;0.90;0.47;;;;;;;;;;5054703;28;20039;-69
2023/10/23 04:48:56;;;;;;;0.50;0.43;;;;;;;;;;5054831;28;20025;-69
2023/10/23 04:51:22;;;;;;;1.00;0.50;;;;;;;;;;5054746;28;20029;-69
2023/10/23 04:53:48;;;;;;;3.35;0.43;;;;;;;;;;5054822;28;20028;-69
2023/10/23 04:56:15;;;;;;;2.70;0.52;;;;;;;;;;5054315;28;20039;-69
2023/10/23 04:58:41;;;;;;;1.55;0.38;;;;;;;;;;5054627;28;20432;-69
2023/10/23 05:01:15;;;;;;;3.05;0.43;;;;;;;;;;5054460;28;20025;-69
2023/10/23 05:03:41;;;;;;;1.23;0.52;;;;;;;;;;5054427;28;20028;-69
2023/10/23 05:06:07;;;;;;;1.40;0.47;;;;;;;;;;5054441;28;20033;-69
2023/10/23 05:08:34;;;;;;;0.77;0.40;;;;;;;;;;5054590;28;20035;-69
2023/10/23 05:11:07;;;;;;;2.70;0.45;;;;;;;;;;5053969;28;20381;-69
2023/10/23 05:13:33;;;;;;;3.17;0.60;;;;;;;;;;5054574;28;20025;-69
2023/10/23 05:16:04;;;;;;;1.27;0.40;;;;;;;;;;5054143;28;20377;-69
2023/10/23 05:18:34;;;;;;;2.70;0.55;;;;;;;;;;5054163;28;20039;-69
2023/10/23 05:21:11;;;;;;;1.58;0.40;;;;;;;;;;5054211;28;20024;-69
2023/10/23 05:23:40;;;;;;;2.55;0.60;;;;;;;;;;5053706;28;20504;-69
2023/10/23 05:26:14;;;;;;;2.95;0.70;;;;;;;;;;5053992;28;20036;-69
2023/10/23 05:28:44;;;;;;;0.85;0.40;;;;;;;;;;5053852;28;20025;-69
2023/10/23 05:31:10;;;;;;;3.92;0.70;;;;;;;;;;5054159;28;20082;-69
2023/10/23 05:33:36;;;;;;;2.85;0.65;;;;;;;;;;5054097;28;20019;-69
2023/10/23 05:36:04;;;;;;;3.95;0.88;;;;;;;;;;5054049;28;20055;-69
2023/10/23 05:38:31;;;;;;;3.80;0.80;;;;;;;;;;5053488;28;20492;-69
2023/10/23 05:40:58;;;;;;;1.25;0.82;;;;;;;;;;5054013;28;20021;-69
2023/10/23 05:43:26;;;;;;;2.90;0.70;;;;;;;;;;5053132;28;20019;-69
2023/10/23 05:45:53;;;;;;;3.70;0.70;;;;;;;;;;5053696;28;20033;-69
2023/10/23 05:48:19;;;;;;;4.03;0.70;;;;;;;;;;5053462;28;20028;-69
2023/10/23 05:50:46;;;;;;;3.58;0.43;;;;;;;;;;5053906;28;20017;-68
2023/10/23 05:53:12;;;;;;;2.13;0.40;;;;;;;;;;5053189;28;20037;-69
2023/10/23 05:55:38;;;;;;;1.38;0.60;;;;;;;;;;5053547;28;20029;-69
2023/10/23 05:58:04;;;;;;;1.23;0.43;;;;;;;;;;5053251;28;20041;-69
2023/10/23 06:00:31;;;;;;;3.08;0.60;;;;;;;;;;5052096;28;20033;-69
2023/10/23 06:02:57;;;;;;;2.15;0.60;;;;;;;;;;5053360;28;20035;-69
2023/10/23 06:05:23;;;;;;;1.73;0.40;;;;;;;;;;5053127;28;20029;-69
2023/10/23 06:07:50;;;;;;;0.30;0.30;;;;;;;;;;5052075;28;20079;-69
2023/10/23 06:10:16;;;;;;;2.45;0.43;;;;;;;;;;5053220;28;20031;-69
2023/10/23 06:12:42;;;;;;;1.42;0.38;;;;;;;;;;5046697;28;20017;-68
2023/10/23 06:15:10;;;;;;;0.65;0.47;;;;;;;;;;5052529;28;20047;-69
2023/10/23 06:17:36;;;;;;;0.75;0.50;;;;;;;;;;5049750;28;20018;-68
2023/10/23 06:20:03;;;;;;;0.77;0.40;;;;;;;;;;5046875;28;20033;-69
2023/10/23 06:22:29;;;;;;;1.38;0.50;;;;;;;;;;5046189;28;20027;-68
2023/10/23 06:24:56;;;;;;;1.08;0.50;;;;;;;;;;5050606;28;20028;-69
2023/10/23 06:27:23;;;;;;;1.63;0.50;;;;;;;;;;5037849;28;20031;-68
2023/10/23 06:29:52;;;;;;;1.08;0.50;;;;;;;;;;5037188;28;20493;-70
2023/10/23 06:32:19;;;;;;;2.03;0.55;;;;;;;;;;5043811;28;20032;-69
2023/10/23 06:34:46;;;;;;;1.70;0.82;;;;;;;;;;5036801;28;20019;-69
2023/10/23 06:37:12;;;;;;;3.15;0.65;;;;;;;;;;5044518;28;20051;-69
2023/10/23 06:39:38;;;;;;;2.47;0.73;;;;;;;;;;5046343;28;20025;-69
2023/10/23 06:42:05;;;;;;;5.80;0.88;;;;;;;;;;5050450;28;20074;-69
2023/10/23 06:44:31;;;;;;;2.80;0.77;;;;;;;;;;5048793;28;20032;-69
2023/10/23 06:46:57;;;;;;;6.68;1.45;;;;;;;;;;5057743;28;20090;-69
2023/10/23 06:49:24;;;;;;;5.53;1.10;;;;;;;;;;5069959;28;20028;-70
2023/10/23 06:51:50;;;;;;;6.47;1.40;;;;;;;;;;5048313;28;20043;-69
2023/10/23 06:54:16;;;;;;;6.90;1.15;;;;;;;;;;5038094;28;20095;-69
2023/10/23 06:56:43;;;;;;;9.02;1.35;;;;;;;;;;5034763;28;20033;-69
2023/10/23 06:59:09;;;;;;;9.70;1.50;;;;;;;;;;5050618;28;20102;-69
2023/10/23 07:01:35;;;;;;;4.97;1.58;;;;;;;;;;5049048;28;20029;-69
2023/10/23 07:04:03;;;;;;;5.13;1.45;;;;;;;;;;5048226;28;20071;-69
2023/10/23 07:06:29;;;;;;;8.75;1.92;;;;;;;;;;5040141;28;20047;-69
2023/10/23 07:08:55;;;;;;;7.72;1.75;;;;;;;;;;5049731;28;20025;-69
2023/10/23 07:11:22;;;;;;;10.60;1.45;;;;;;;;;;5047215;28;20477;-69
2023/10/23 07:13:48;;;;;;;13.13;2.13;;;;;;;;;;5049626;28;20451;-69
2023/10/23 07:16:15;;;;;;;12.90;2.22;;;;;;;;;;5049752;28;20032;-69
2023/10/23 07:18:41;;;;;;;10.88;1.58;;;;;;;;;;5051144;28;20035;-69
2023/10/23 07:21:08;;;;;;;12.90;1.95;;;;;;;;;;5050204;28;20048;-69
2023/10/23 07:23:34;;;;;;;9.05;1.60;;;;;;;;;;5050517;28;20029;-69
2023/10/23 07:26:00;;;;;;;10.23;1.67;;;;;;;;;;5049799;28;20028;-68
2023/10/23 07:28:27;;;;;;;8.10;2.08;;;;;;;;;;5047152;28;20029;-69
2023/10/23 07:30:53;;;;;;;15.02;1.90;;;;;;;;;;5041073;28;20028;-69
2023/10/23 07:33:19;;;;;;;15.43;1.58;;;;;;;;;;5047725;28;20029;-69
2023/10/23 07:35:46;;;;;;;4.25;1.10;;;;;;;;;;5050549;28;20403;-69
2023/10/23 07:38:12;;;;;;;4.30;1.20;;;;;;;;;;5050370;28;20021;-69
2023/10/23 07:40:44;;;;;;;4.63;1.00;;;;;;;;;;5050586;28;20420;-68
2023/10/23 07:43:11;;;;;;;12.65;1.20;;;;;;;;;;5043675;28;20038;-69
2023/10/23 07:45:38;;;;;;;10.90;1.40;;;;;;;;;;5036192;28;20498;-69
2023/10/23 07:48:05;;;;;;;7.00;1.20;;;;;;;;;;5050484;28;20021;-68
2023/10/23 07:50:35;;;;;;;4.55;0.98;;;;;;;;;;5050757;28;20086;-68
2023/10/23 07:53:01;;;;;;;8.00;0.98;;;;;;;;;;5049500;28;20017;-69
2023/10/23 07:55:28;;;;;;;4.03;0.80;;;;;;;;;;5048405;28;20025;-69
2023/10/23 07:57:54;;;;;;;4.50;0.68;;;;;;;;;;5050005;28;20052;-69
2023/10/23 08:00:20;;;;;;;7.68;0.77;;;;;;;;;;5041640;28;20032;-69
2023/10/23 08:02:46;;;;;;;2.47;0.75;;;;;;;;;;5045190;28;20037;-69
2023/10/23 08:05:13;;;;;;;3.35;0.80;;;;;;;;;;5048239;28;20044;-69
2023/10/23 08:07:39;;;;;;;2.00;0.73;;;;;;;;;;5051607;28;20029;-70
2023/10/23 08:10:05;;;;;;;3.25;1.02;;;;;;;;;;5054192;28;20021;-70
2023/10/23 08:12:32;;;;;;;1.75;0.50;;;;;;;;;;5053839;28;20029;-69
2023/10/23 08:14:58;;;;;;;3.55;0.68;;;;;;;;;;5053116;28;20047;-70
2023/10/23 08:17:24;;;;;;;3.72;0.88;;;;;;;;;;5048327;28;20024;-69
2023/10/23 08:19:51;;;;;;;2.00;0.88;;;;;;;;;;5053586;28;20017;-69
2023/10/23 08:22:17;;;;;;;1.50;0.60;;;;;;;;;;5053700;28;20025;-70
2023/10/23 08:24:43;;;;;;;4.22;0.77;;;;;;;;;;5051287;28;20028;-70
2023/10/23 08:27:10;;;;;;;3.83;0.95;;;;;;;;;;5052736;28;20040;-69
2023/10/23 08:29:36;;;;;;;5.57;0.90;;;;;;;;;;5053788;28;20411;-69
2023/10/23 08:32:03;;;;;;;1.13;0.50;;;;;;;;;;5053486;28;20042;-69
2023/10/23 08:34:29;;;;;;;2.83;0.85;;;;;;;;;;5044017;28;20026;-69
2023/10/23 08:36:55;;;;;;;2.55;0.57;;;;;;;;;;5051596;28;20084;-69
2023/10/23 08:39:22;;;;;;;6.22;0.80;;;;;;;;;;5052171;28;20035;-69
2023/10/23 08:41:48;;;;;;;6.25;0.98;;;;;;;;;;5053619;28;20033;-69
2023/10/23 08:44:16;;;;;;;4.93;1.20;;;;;;;;;;5053469;28;20074;-70
2023/10/23 08:46:42;;;;;;;2.08;0.65;;;;;;;;;;5053253;28;20047;-69
2023/10/23 08:49:08;;;;;;;4.82;0.90;;;;;;;;;;5047724;28;20020;-69
2023/10/23 08:51:35;;;;;;;2.55;0.70;;;;;;;;;;5049329;28;20495;-70
2023/10/23 08:54:04;;;;;;;4.85;1.05;;;;;;;;;;5052255;28;20029;-69
2023/10/23 08:56:31;;;;;;;2.30;0.70;;;;;;;;;;5042111;28;20393;-71
2023/10/23 08:58:59;;;;;;;6.60;0.80;;;;;;;;;;5052475;28;20405;-71
2023/10/23 09:01:28;;;;;;;1.70;0.68;;;;;;;;;;5051788;28;20049;-71
2023/10/23 09:03:54;;;;;;;6.55;0.85;;;;;;;;;;5052923;28;20028;-71
2023/10/23 09:06:21;;;;;;;1.58;0.60;;;;;;;;;;5051750;28;20032;-71
2023/10/23 09:08:47;;;;;;;4.55;0.77;;;;;;;;;;5042161;28;20425;-71
2023/10/23 09:11:14;;;;;;;4.15;1.10;;;;;;;;;;5051845;28;20031;-71
2023/10/23 09:13:41;;;;;;;4.90;1.05;;;;;;;;;;5052938;28;20029;-71
2023/10/23 09:16:11;;;;;;;3.83;1.08;;;;;;;;;;5051707;28;20029;-70
2023/10/23 09:18:57;;;;;;;6.35;1.00;;;;;;;;;;5047211;28;20043;-71
2023/10/23 09:21:23;;;;;;;6.65;1.27;;;;;;;;;;5049982;28;20025;-71
2023/10/23 09:23:54;;;;;;;6.00;1.00;;;;;;;;;;5052875;28;20021;-71
2023/10/23 09:26:21;;;;;;;3.63;1.05;;;;;;;;;;5045941;28;20055;-71
2023/10/23 09:28:49;;;;;;;3.97;1.02;;;;;;;;;;5050324;28;20033;-70
2023/10/23 09:31:18;;;;;;;3.95;0.88;;;;;;;;;;5040100;28;20389;-71
2023/10/23 09:33:45;;;;;;;8.07;0.90;;;;;;;;;;5051154;28;20025;-69
2023/10/23 09:36:15;;;;;;;4.32;1.05;;;;;;;;;;5052941;28;20029;-69
2023/10/23 09:38:55;;;;;;;6.80;1.23;;;;;;;;;;5051459;28;20035;-71
2023/10/23 09:41:21;;;;;;;8.65;1.40;;;;;;;;;;5052056;28;20035;-70
2023/10/23 09:43:48;;;;;;;10.32;2.05;;;;;;;;;;5044969;28;20032;-71
2023/10/23 09:46:15;;;;;;;8.48;2.15;;;;;;;;;;5049093;28;20041;-71
2023/10/23 09:48:43;;;;;;;17.95;2.88;;;;;;;;;;5048007;28;20037;-70
2023/10/23 09:51:18;;;;;;;16.05;2.45;;;;;;;;;;5048724;28;20031;-71
2023/10/23 09:53:58;;;;;;;17.67;2.30;;;;;;;;;;5043958;28;20044;-70
2023/10/23 09:56:29;;;;;;;18.27;3.25;;;;;;;;;;5051191;28;20033;-74
2023/10/23 09:58:59;;;;;;;11.05;2.45;;;;;;;;;;5037342;28;20037;-74
2023/10/23 10:01:46;;;;;;;7.45;2.00;;;;;;;;;;5035987;28;20028;-73
2023/10/23 10:04:18;;;;;;;7.55;1.42;;;;;;;;;;5047735;28;20486;-73
2023/10/23 10:06:47;;;;;;;18.63;2.58;;;;;;;;;;5051474;28;20043;-73
2023/10/23 10:09:14;;;;;;;15.57;2.65;;;;;;;;;;5051963;28;20036;-72
2023/10/23 10:11:42;;;;;;;16.02;2.47;;;;;;;;;;5051841;28;20519;-75
2023/10/23 10:14:09;;;;;;;10.30;2.17;;;;;;;;;;5051386;28;20017;-76
2023/10/23 10:16:36;;;;;;;9.13;2.33;;;;;;;;;;5051831;28;20017;-72
2023/10/23 10:19:04;;;;;;;8.93;2.00;;;;;;;;;;5050404;28;20039;-74
2023/10/23 10:21:41;;;;;;;8.43;1.58;;;;;;;;;;5052041;28;20013;-76
2023/10/23 10:24:08;;;;;;;7.03;1.30;;;;;;;;;;5052028;28;20024;-73
2023/10/23 10:26:35;;;;;;;5.38;1.42;;;;;;;;;;5051873;28;20052;-71
2023/10/23 10:29:03;;;;;;;3.88;1.20;;;;;;;;;;5051626;28;20017;-72
2023/10/23 10:31:29;;;;;;;4.13;1.20;;;;;;;;;;5050395;28;20382;-73
2023/10/23 10:33:55;;;;;;;6.18;1.73;;;;;;;;;;5051905;28;20021;-72
2023/10/23 10:36:26;;;;;;;4.45;2.03;;;;;;;;;;5052227;28;20025;-73
2023/10/23 10:38:52;;;;;;;7.00;1.73;;;;;;;;;;5051889;28;20024;-71
2023/10/23 10:41:19;;;;;;;5.05;1.48;;;;;;;;;;5051978;28;20025;-74
2023/10/23 10:43:52;;;;;;;4.15;0.80;;;;;;;;;;5051449;28;20393;-71
2023/10/23 10:46:26;;;;;;;3.28;1.67;;;;;;;;;;5051717;28;20036;-72
2023/10/23 10:48:53;;;;;;;2.60;0.90;;;;;;;;;;5052116;28;20021;-74
2023/10/23 10:51:20;;;;;;;3.30;0.68;;;;;;;;;;5051843;28;20013;-71
2023/10/23 10:53:47;;;;;;;6.53;2.38;;;;;;;;;;5051911;28;20036;-72
2023/10/23 10:56:13;;;;;;;5.90;0.70;;;;;;;;;;5049625;28;20352;-72
2023/10/23 10:58:43;;;;;;;2.47;0.80;;;;;;;;;;5050115;28;20521;-70
2023/10/23 11:01:10;;;;;;;2.70;0.57;;;;;;;;;;5050952;28;20037;-71
2023/10/23 11:03:36;;;;;;;6.65;0.88;;;;;;;;;;5051144;28;20032;-71
2023/10/23 11:06:04;;;;;;;8.88;0.82;;;;;;;;;;5050829;28;20036;-70
2023/10/23 11:08:30;;;;;;;7.18;0.93;;;;;;;;;;5050792;28;20017;-70
2023/10/23 11:10:57;;;;;;;6.70;1.08;;;;;;;;;;5051066;28;20031;-69
2023/10/23 11:13:24;;;;;;;5.65;1.25;;;;;;;;;;5051014;28;20051;-70
2023/10/23 11:15:54;;;;;;;7.60;1.25;;;;;;;;;;5050812;28;20032;-70
2023/10/23 11:18:20;;;;;;;6.05;1.38;;;;;;;;;;5051090;28;20017;-70
2023/10/23 11:20:47;;;;;;;9.40;1.42;;;;;;;;;;5051324;28;20093;-70
2023/10/23 11:23:21;;;;;;;3.45;1.60;;;;;;;;;;5051104;28;20025;-70
2023/10/23 11:25:48;;;;;;;12.68;2.20;;;;;;;;;;5050835;28;20044;-70
2023/10/23 11:28:18;;;;;;;10.73;1.92;;;;;;;;;;5050918;28;20027;-70
2023/10/23 11:30:49;;;;;;;18.55;2.67;;;;;;;;;;5050941;28;20025;-70
2023/10/23 11:33:16;;;;;;;18.85;2.72;;;;;;;;;;5043200;28;20021;-70
2023/10/23 11:35:43;;;;;;;12.73;2.60;;;;;;;;;;5051073;28;20029;-70
2023/10/23 11:38:27;;;;;;;19.42;3.00;;;;;;;;;;5045923;28;20020;-70
2023/10/23 11:40:53;;;;;;;18.70;3.13;;;;;;;;;;5053726;28;20046;-70
2023/10/23 11:43:20;;;;;;;19.05;3.35;;;;;;;;;;5051677;28;20024;-70
2023/10/23 11:45:47;;;;;;;16.30;3.63;;;;;;;;;;5048997;28;20043;-71
2023/10/23 11:48:14;;;;;;;17.75;3.00;;;;;;;;;;5053751;28;20036;-71
2023/10/23 11:50:41;;;;;;;18.50;2.72;;;;;;;;;;5054787;28;20653;-70
2023/10/23 11:53:07;;;;;;;14.10;2.63;;;;;;;;;;5053932;28;20044;-70
2023/10/23 11:55:34;;;;;;;20.98;2.40;;;;;;;;;;5053483;28;20594;-70
2023/10/23 11:58:01;;;;;;;18.33;2.92;;;;;;;;;;5047465;28;20049;-70
2023/10/23 12:00:31;;;;;;;17.80;2.97;;;;;;;;;;5048750;28;20485;-71
2023/10/23 12:02:57;;;;;;;17.98;2.70;;;;;;;;;;5043441;28;20029;-70
2023/10/23 12:05:24;;;;;;;24.65;3.40;;;;;;;;;;5053306;28;20490;-70
2023/10/23 12:07:52;;;;;;;13.10;2.80;;;;;;;;;;5054550;28;20033;-70
2023/10/23 12:10:19;;;;;;;15.68;2.83;;;;;;;;;;5054169;28;20027;-71
2023/10/23 12:12:46;;;;;;;14.98;2.95;;;;;;;;;;5054376;28;20401;-70
2023/10/23 12:15:14;;;;;;;20.63;3.20;;;;;;;;;;5053198;28;20035;-71
2023/10/23 12:17:40;;;;;;;23.95;3.47;;;;;;;;;;5052426;28;20362;-70
2023/10/23 12:20:07;;;;;;;23.77;4.07;;;;;;;;;;5050160;28;20036;-70
2023/10/23 12:22:37;;;;;;;24.98;4.07;;;;;;;;;;5053210;28;20031;-70
2023/10/23 12:25:04;;;;;;;28.52;4.63;;;;;;;;;;5053869;28;20029;-70
2023/10/23 12:27:32;;;;;;;32.40;5.07;;;;;;;;;;5054152;28;20078;-71
2023/10/23 12:29:58;;;;;;;34.00;4.65;;;;;;;;;;5052555;28;20037;-71
2023/10/23 12:32:28;;;;;;;36.20;4.65;;;;;;;;;;5046175;28;20026;-71
2023/10/23 12:34:57;;;;;;;31.35;4.65;;;;;;;;;;5053016;28;20029;-71
2023/10/23 12:37:30;;;;;;;24.88;4.10;;;;;;;;;;5052847;28;20050;-70
2023/10/23 12:39:58;;;;;;;25.63;3.65;;;;;;;;;;5051649;28;20037;-70
2023/10/23 12:42:24;;;;;;;27.98;4.35;;;;;;;;;;5050610;28;20027;-71
2023/10/23 12:44:51;;;;;;;24.63;4.50;;;;;;;;;;5035254;28;20021;-71
2023/10/23 12:47:18;;;;;;;19.67;3.35;;;;;;;;;;5033911;28;20029;-71
2023/10/23 12:49:44;;;;;;;21.65;3.08;;;;;;;;;;5034899;28;20033;-71
2023/10/23 12:52:11;;;;;;;18.88;3.38;;;;;;;;;;5047116;28;20037;-71
2023/10/23 12:54:37;;;;;;;24.58;3.83;;;;;;;;;;5048728;28;20052;-71
2023/10/23 12:57:04;;;;;;;22.45;3.17;;;;;;;;;;5041678;28;20481;-71
2023/10/23 12:59:31;;;;;;;22.60;3.83;;;;;;;;;;5040307;28;20038;-71
2023/10/23 13:01:58;;;;;;;29.20;4.00;;;;;;;;;;5048810;28;20478;-71
2023/10/23 13:04:24;;;;;;;27.25;4.30;;;;;;;;;;5052099;28;20045;-71
2023/10/23 13:06:51;;;;;;;23.52;4.07;;;;;;;;;;5049447;28;20029;-71
2023/10/23 13:09:17;;;;;;;33.78;4.72;;;;;;;;;;5032706;28;20036;-71
2023/10/23 13:11:47;;;;;;;24.83;4.38;;;;;;;;;;5038039;28;20386;-71
2023/10/23 13:14:13;;;;;;;31.13;4.50;;;;;;;;;;5037380;28;20035;-71
2023/10/23 13:16:40;;;;;;;32.63;4.50;;;;;;;;;;5036720;28;20017;-71
2023/10/23 13:19:06;;;;;;;29.48;4.35;;;;;;;;;;5039962;28;20036;-71
2023/10/23 13:21:36;;;;;;;23.48;4.53;;;;;;;;;;5045833;28;20017;-71
2023/10/23 13:24:04;;;;;;;31.15;4.72;;;;;;;;;;5048405;28;20029;-70
2023/10/23 13:26:31;;;;;;;24.52;4.18;;;;;;;;;;5049570;28;20037;-71
2023/10/23 13:28:57;;;;;;;22.92;3.88;;;;;;;;;;5052650;28;20075;-70
2023/10/23 13:31:27;;;;;;;19.85;4.00;;;;;;;;;;5051923;28;20021;-71
2023/10/23 13:33:53;;;;;;;19.00;3.53;;;;;;;;;;5052674;28;20023;-71
2023/10/23 13:36:20;;;;;;;33.35;4.75;;;;;;;;;;5048120;28;20025;-71
2023/10/23 13:38:46;;;;;;;35.92;5.45;;;;;;;;;;5049317;28;20025;-70
2023/10/23 13:41:12;;;;;;;26.00;5.20;;;;;;;;;;5032879;28;20033;-71
2023/10/23 13:43:39;;;;;;;42.83;5.65;;;;;;;;;;5049120;28;20020;-69
2023/10/23 13:46:05;;;;;;;34.55;5.53;;;;;;;;;;5052438;28;20041;-69
2023/10/23 13:48:31;;;;;;;42.15;6.03;;;;;;;;;;5052468;28;20087;-71
2023/10/23 13:50:58;;;;;;;49.65;6.50;;;;;;;;;;5044974;28;20498;-71
2023/10/23 13:53:24;;;;;;;35.50;5.60;;;;;;;;;;5051530;28;20371;-71
2023/10/23 13:55:51;;;;;;;46.40;6.63;;;;;;;;;;5041429;28;20032;-71
2023/10/23 13:58:18;;;;;;;50.35;6.20;;;;;;;;;;5032520;28;20045;-70
2023/10/23 14:00:45;;;;;;;43.10;6.18;;;;;;;;;;5040871;28;20030;-71
2023/10/23 14:03:11;;;;;;;43.60;5.55;;;;;;;;;;5051003;28;20413;-72
2023/10/23 14:05:37;;;;;;;45.45;6.28;;;;;;;;;;5049561;28;20025;-73
2023/10/23 14:08:04;;;;;;;45.20;6.40;;;;;;;;;;5050723;28;20025;-72
2023/10/23 14:10:30;;;;;;;49.97;6.20;;;;;;;;;;5052182;28;20369;-70
2023/10/23 14:12:57;;;;;;;39.38;5.95;;;;;;;;;;5039040;28;20047;-75
2023/10/23 14:15:26;;;;;;;25.80;4.55;;;;;;;;;;5050749;28;20031;-69
2023/10/23 14:17:53;;;;;;;28.70;3.67;;;;;;;;;;5043160;28;20032;-71
2023/10/23 14:20:19;;;;;;;22.27;4.10;;;;;;;;;;5050623;28;20029;-71
2023/10/23 14:22:46;;;;;;;32.70;3.08;;;;;;;;;;5052132;28;20021;-71
2023/10/23 14:25:12;;;;;;;20.02;4.95;;;;;;;;;;5051919;28;20027;-71
2023/10/23 14:27:39;;;;;;;153.93;7.15;;;;;;;;;;5034998;28;20033;-71
2023/10/23 14:30:05;;;;;;;335.30;11.40;;;;;;;;;;5046283;28;20029;-71
2023/10/23 14:32:32;;;;;;;62.35;5.30;;;;;;;;;;5050849;28;20374;-71
2023/10/23 14:34:59;;;;;;;43.03;2.05;;;;;;;;;;5032002;28;20025;-71
2023/10/23 14:37:25;;;;;;;1.70;0.93;;;;;;;;;;5042357;28;20025;-72